sensor_id;sensor_type;location;lat;lon;timestamp;P1;durP1;ratioP1;P2;durP2;ratioP2
9188;SDS011;34313;50.780;6.084;2024-01-25T00:00:40;33.87;;;7.40;;
9188;SDS011;34313;50.780;6.084;2024-01-25T00:03:05;41.90;;;6.73;;
9188;SDS011;34313;50.780;6.084;2024-01-25T00:05:30;46.43;;;7.83;;
9188;SDS011;34313;50.780;6.084;2024-01-25T00:07:56;38.97;;;7.33;;
9188;SDS011;34313;50.780;6.084;2024-01-25T00:10:21;44.87;;;6.50;;
9188;SDS011;34313;50.780;6.084;2024-01-25T00:12:46;36.10;;;7.07;;
9188;SDS011;34313;50.780;6.084;2024-01-25T00:15:12;41.40;;;6.80;;
9188;SDS011;34313;50.780;6.084;2024-01-25T00:17:37;48.63;;;7.77;;
9188;SDS011;34313;50.780;6.084;2024-01-25T00:20:03;59.03;;;8.67;;
9188;SDS011;34313;50.780;6.084;2024-01-25T00:22:30;50.97;;;7.77;;
9188;SDS011;34313;50.780;6.084;2024-01-25T00:24:55;62.20;;;8.03;;
9188;SDS011;34313;50.780;6.084;2024-01-25T00:27:20;55.87;;;9.17;;
9188;SDS011;34313;50.780;6.084;2024-01-25T00:29:45;41.03;;;8.20;;
9188;SDS011;34313;50.780;6.084;2024-01-25T00:32:11;42.03;;;7.00;;
9188;SDS011;34313;50.780;6.084;2024-01-25T00:34:36;47.13;;;8.20;;
9188;SDS011;34313;50.780;6.084;2024-01-25T00:37:02;44.77;;;8.40;;
9188;SDS011;34313;50.780;6.084;2024-01-25T00:39:27;39.87;;;7.00;;
9188;SDS011;34313;50.780;6.084;2024-01-25T00:41:53;49.80;;;8.43;;
9188;SDS011;34313;50.780;6.084;2024-01-25T00:44:28;38.60;;;6.47;;
9188;SDS011;34313;50.780;6.084;2024-01-25T00:46:54;40.03;;;6.80;;
9188;SDS011;34313;50.780;6.084;2024-01-25T00:49:19;62.53;;;7.87;;
9188;SDS011;34313;50.780;6.084;2024-01-25T00:51:46;50.63;;;8.13;;
9188;SDS011;34313;50.780;6.084;2024-01-25T00:54:13;52.63;;;7.70;;
9188;SDS011;34313;50.780;6.084;2024-01-25T00:56:39;45.40;;;7.37;;
9188;SDS011;34313;50.780;6.084;2024-01-25T00:59:05;41.17;;;7.33;;
9188;SDS011;34313;50.780;6.084;2024-01-25T01:01:30;50.90;;;7.93;;
9188;SDS011;34313;50.780;6.084;2024-01-25T01:03:56;34.07;;;7.83;;
9188;SDS011;34313;50.780;6.084;2024-01-25T01:06:23;37.43;;;6.73;;
9188;SDS011;34313;50.780;6.084;2024-01-25T01:08:49;49.90;;;6.67;;
9188;SDS011;34313;50.780;6.084;2024-01-25T01:11:15;49.43;;;7.57;;
9188;SDS011;34313;50.780;6.084;2024-01-25T01:13:40;49.30;;;8.10;;
9188;SDS011;34313;50.780;6.084;2024-01-25T01:16:05;43.73;;;7.93;;
9188;SDS011;34313;50.780;6.084;2024-01-25T01:18:31;40.73;;;6.67;;
9188;SDS011;34313;50.780;6.084;2024-01-25T01:20:56;43.83;;;7.67;;
9188;SDS011;34313;50.780;6.084;2024-01-25T01:23:21;49.80;;;8.93;;
9188;SDS011;34313;50.780;6.084;2024-01-25T01:25:47;52.40;;;8.00;;
9188;SDS011;34313;50.780;6.084;2024-01-25T01:28:12;40.40;;;7.47;;
9188;SDS011;34313;50.780;6.084;2024-01-25T01:30:38;56.67;;;7.90;;
9188;SDS011;34313;50.780;6.084;2024-01-25T01:33:06;45.40;;;7.53;;
9188;SDS011;34313;50.780;6.084;2024-01-25T01:35:35;42.20;;;7.50;;
9188;SDS011;34313;50.780;6.084;2024-01-25T01:38:00;50.23;;;7.77;;
9188;SDS011;34313;50.780;6.084;2024-01-25T01:40:25;47.43;;;7.53;;
9188;SDS011;34313;50.780;6.084;2024-01-25T01:42:51;62.90;;;8.03;;
9188;SDS011;34313;50.780;6.084;2024-01-25T01:45:16;62.53;;;8.20;;
9188;SDS011;34313;50.780;6.084;2024-01-25T01:47:41;44.70;;;7.50;;
9188;SDS011;34313;50.780;6.084;2024-01-25T01:50:08;48.43;;;7.27;;
9188;SDS011;34313;50.780;6.084;2024-01-25T01:52:34;53.73;;;7.60;;
9188;SDS011;34313;50.780;6.084;2024-01-25T01:54:59;46.47;;;7.40;;
9188;SDS011;34313;50.780;6.084;2024-01-25T01:57:25;47.50;;;7.77;;
9188;SDS011;34313;50.780;6.084;2024-01-25T01:59:51;58.63;;;8.03;;
9188;SDS011;34313;50.780;6.084;2024-01-25T02:02:17;46.20;;;7.43;;
9188;SDS011;34313;50.780;6.084;2024-01-25T02:04:43;53.00;;;8.10;;
9188;SDS011;34313;50.780;6.084;2024-01-25T02:07:09;56.77;;;9.13;;
9188;SDS011;34313;50.780;6.084;2024-01-25T02:09:34;46.03;;;8.00;;
9188;SDS011;34313;50.780;6.084;2024-01-25T02:12:00;37.60;;;7.57;;
9188;SDS011;34313;50.780;6.084;2024-01-25T02:14:27;68.97;;;7.90;;
9188;SDS011;34313;50.780;6.084;2024-01-25T02:16:52;47.13;;;8.10;;
9188;SDS011;34313;50.780;6.084;2024-01-25T02:19:17;44.20;;;8.90;;
9188;SDS011;34313;50.780;6.084;2024-01-25T02:21:43;53.23;;;9.17;;
9188;SDS011;34313;50.780;6.084;2024-01-25T02:24:08;51.13;;;8.70;;
9188;SDS011;34313;50.780;6.084;2024-01-25T02:26:33;40.10;;;7.97;;
9188;SDS011;34313;50.780;6.084;2024-01-25T02:28:59;39.27;;;8.13;;
9188;SDS011;34313;50.780;6.084;2024-01-25T02:31:25;40.47;;;7.30;;
9188;SDS011;34313;50.780;6.084;2024-01-25T02:33:50;44.97;;;7.30;;
9188;SDS011;34313;50.780;6.084;2024-01-25T02:36:15;40.90;;;7.87;;
9188;SDS011;34313;50.780;6.084;2024-01-25T02:38:41;46.57;;;7.63;;
9188;SDS011;34313;50.780;6.084;2024-01-25T02:41:06;51.13;;;7.27;;
9188;SDS011;34313;50.780;6.084;2024-01-25T02:43:31;50.67;;;7.37;;
9188;SDS011;34313;50.780;6.084;2024-01-25T02:45:57;48.70;;;7.60;;
9188;SDS011;34313;50.780;6.084;2024-01-25T02:48:22;38.23;;;6.60;;
9188;SDS011;34313;50.780;6.084;2024-01-25T02:50:47;41.40;;;7.17;;
9188;SDS011;34313;50.780;6.084;2024-01-25T02:53:13;58.30;;;7.97;;
9188;SDS011;34313;50.780;6.084;2024-01-25T02:55:38;40.30;;;6.43;;
9188;SDS011;34313;50.780;6.084;2024-01-25T02:58:03;39.97;;;6.37;;
9188;SDS011;34313;50.780;6.084;2024-01-25T03:00:29;50.00;;;7.20;;
9188;SDS011;34313;50.780;6.084;2024-01-25T03:02:54;43.83;;;8.27;;
9188;SDS011;34313;50.780;6.084;2024-01-25T03:05:19;39.40;;;7.27;;
9188;SDS011;34313;50.780;6.084;2024-01-25T03:07:45;46.47;;;7.00;;
9188;SDS011;34313;50.780;6.084;2024-01-25T03:10:10;41.33;;;7.33;;
9188;SDS011;34313;50.780;6.084;2024-01-25T03:12:35;35.23;;;6.40;;
9188;SDS011;34313;50.780;6.084;2024-01-25T03:15:01;65.70;;;9.67;;
9188;SDS011;34313;50.780;6.084;2024-01-25T03:17:26;46.47;;;7.50;;
9188;SDS011;34313;50.780;6.084;2024-01-25T03:19:52;61.23;;;8.23;;
9188;SDS011;34313;50.780;6.084;2024-01-25T03:22:17;33.27;;;6.90;;
9188;SDS011;34313;50.780;6.084;2024-01-25T03:24:42;37.30;;;7.10;;
9188;SDS011;34313;50.780;6.084;2024-01-25T03:27:08;43.73;;;6.70;;
9188;SDS011;34313;50.780;6.084;2024-01-25T03:29:40;36.90;;;6.87;;
9188;SDS011;34313;50.780;6.084;2024-01-25T03:32:06;30.77;;;6.53;;
9188;SDS011;34313;50.780;6.084;2024-01-25T03:34:32;36.83;;;6.77;;
9188;SDS011;34313;50.780;6.084;2024-01-25T03:36:57;41.20;;;6.10;;
9188;SDS011;34313;50.780;6.084;2024-01-25T03:39:23;37.37;;;6.87;;
9188;SDS011;34313;50.780;6.084;2024-01-25T03:41:48;46.30;;;7.63;;
9188;SDS011;34313;50.780;6.084;2024-01-25T03:44:13;45.67;;;7.27;;
9188;SDS011;34313;50.780;6.084;2024-01-25T03:46:38;54.40;;;7.33;;
9188;SDS011;34313;50.780;6.084;2024-01-25T03:49:04;39.53;;;7.10;;
9188;SDS011;34313;50.780;6.084;2024-01-25T03:51:29;49.27;;;7.90;;
9188;SDS011;34313;50.780;6.084;2024-01-25T03:53:55;50.40;;;7.50;;
9188;SDS011;34313;50.780;6.084;2024-01-25T03:56:23;43.80;;;8.13;;
9188;SDS011;34313;50.780;6.084;2024-01-25T03:58:48;41.30;;;8.10;;
9188;SDS011;34313;50.780;6.084;2024-01-25T04:01:14;36.70;;;6.70;;
9188;SDS011;34313;50.780;6.084;2024-01-25T04:03:39;31.93;;;6.87;;
9188;SDS011;34313;50.780;6.084;2024-01-25T04:06:04;34.53;;;7.10;;
9188;SDS011;34313;50.780;6.084;2024-01-25T04:08:30;41.47;;;7.60;;
9188;SDS011;34313;50.780;6.084;2024-01-25T04:10:55;35.50;;;7.60;;
9188;SDS011;34313;50.780;6.084;2024-01-25T04:13:20;41.27;;;7.23;;
9188;SDS011;34313;50.780;6.084;2024-01-25T04:15:45;37.97;;;8.60;;
9188;SDS011;34313;50.780;6.084;2024-01-25T04:18:11;56.80;;;7.83;;
9188;SDS011;34313;50.780;6.084;2024-01-25T04:20:36;58.53;;;7.53;;
9188;SDS011;34313;50.780;6.084;2024-01-25T04:23:02;37.63;;;7.33;;
9188;SDS011;34313;50.780;6.084;2024-01-25T04:25:27;58.03;;;8.70;;
9188;SDS011;34313;50.780;6.084;2024-01-25T04:27:52;40.40;;;7.03;;
9188;SDS011;34313;50.780;6.084;2024-01-25T04:30:17;51.40;;;7.63;;
9188;SDS011;34313;50.780;6.084;2024-01-25T04:32:43;49.07;;;7.50;;
9188;SDS011;34313;50.780;6.084;2024-01-25T04:35:08;45.43;;;7.40;;
9188;SDS011;34313;50.780;6.084;2024-01-25T04:37:34;34.53;;;6.57;;
9188;SDS011;34313;50.780;6.084;2024-01-25T04:40:00;42.33;;;7.63;;
9188;SDS011;34313;50.780;6.084;2024-01-25T04:42:25;42.93;;;7.67;;
9188;SDS011;34313;50.780;6.084;2024-01-25T04:44:52;41.77;;;7.67;;
9188;SDS011;34313;50.780;6.084;2024-01-25T04:47:18;45.30;;;8.43;;
9188;SDS011;34313;50.780;6.084;2024-01-25T04:49:43;60.20;;;7.93;;
9188;SDS011;34313;50.780;6.084;2024-01-25T04:52:08;59.50;;;9.03;;
9188;SDS011;34313;50.780;6.084;2024-01-25T04:54:33;56.40;;;8.47;;
9188;SDS011;34313;50.780;6.084;2024-01-25T04:56:59;50.23;;;9.07;;
9188;SDS011;34313;50.780;6.084;2024-01-25T04:59:24;39.50;;;7.80;;
9188;SDS011;34313;50.780;6.084;2024-01-25T05:01:49;55.57;;;8.17;;
9188;SDS011;34313;50.780;6.084;2024-01-25T05:04:15;46.50;;;8.93;;
9188;SDS011;34313;50.780;6.084;2024-01-25T05:06:41;45.83;;;9.50;;
9188;SDS011;34313;50.780;6.084;2024-01-25T05:09:06;68.00;;;9.87;;
9188;SDS011;34313;50.780;6.084;2024-01-25T05:11:33;52.73;;;9.67;;
9188;SDS011;34313;50.780;6.084;2024-01-25T05:14:02;42.20;;;9.67;;
9188;SDS011;34313;50.780;6.084;2024-01-25T05:16:28;67.63;;;10.53;;
9188;SDS011;34313;50.780;6.084;2024-01-25T05:18:53;62.63;;;10.47;;
9188;SDS011;34313;50.780;6.084;2024-01-25T05:21:18;55.80;;;11.90;;
9188;SDS011;34313;50.780;6.084;2024-01-25T05:23:43;57.37;;;12.40;;
9188;SDS011;34313;50.780;6.084;2024-01-25T05:26:10;60.07;;;12.07;;
9188;SDS011;34313;50.780;6.084;2024-01-25T05:28:35;46.07;;;10.30;;
9188;SDS011;34313;50.780;6.084;2024-01-25T05:31:01;67.73;;;11.80;;
9188;SDS011;34313;50.780;6.084;2024-01-25T05:33:26;52.80;;;11.60;;
9188;SDS011;34313;50.780;6.084;2024-01-25T05:35:51;47.40;;;11.07;;
9188;SDS011;34313;50.780;6.084;2024-01-25T05:38:16;59.83;;;12.30;;
9188;SDS011;34313;50.780;6.084;2024-01-25T05:40:42;59.53;;;12.27;;
9188;SDS011;34313;50.780;6.084;2024-01-25T05:43:07;52.77;;;12.67;;
9188;SDS011;34313;50.780;6.084;2024-01-25T05:45:33;62.23;;;11.90;;
9188;SDS011;34313;50.780;6.084;2024-01-25T05:47:58;56.17;;;11.20;;
9188;SDS011;34313;50.780;6.084;2024-01-25T05:50:24;53.47;;;11.60;;
9188;SDS011;34313;50.780;6.084;2024-01-25T05:52:49;66.47;;;11.80;;
9188;SDS011;34313;50.780;6.084;2024-01-25T05:55:15;63.53;;;12.40;;
9188;SDS011;34313;50.780;6.084;2024-01-25T05:57:42;54.83;;;12.80;;
9188;SDS011;34313;50.780;6.084;2024-01-25T06:00:09;49.53;;;12.40;;
9188;SDS011;34313;50.780;6.084;2024-01-25T06:02:38;35.83;;;11.33;;
9188;SDS011;34313;50.780;6.084;2024-01-25T06:05:03;57.23;;;12.13;;
9188;SDS011;34313;50.780;6.084;2024-01-25T06:07:29;59.43;;;12.20;;
9188;SDS011;34313;50.780;6.084;2024-01-25T06:09:54;64.30;;;14.40;;
9188;SDS011;34313;50.780;6.084;2024-01-25T06:12:19;50.37;;;11.53;;
9188;SDS011;34313;50.780;6.084;2024-01-25T06:14:45;64.97;;;12.40;;
9188;SDS011;34313;50.780;6.084;2024-01-25T06:17:10;53.00;;;13.47;;
9188;SDS011;34313;50.780;6.084;2024-01-25T06:19:36;67.10;;;13.30;;
9188;SDS011;34313;50.780;6.084;2024-01-25T06:22:01;55.47;;;13.40;;
9188;SDS011;34313;50.780;6.084;2024-01-25T06:24:27;52.17;;;11.80;;
9188;SDS011;34313;50.780;6.084;2024-01-25T06:26:53;57.43;;;13.60;;
9188;SDS011;34313;50.780;6.084;2024-01-25T06:29:18;58.70;;;14.57;;
9188;SDS011;34313;50.780;6.084;2024-01-25T06:31:44;61.63;;;12.50;;
9188;SDS011;34313;50.780;6.084;2024-01-25T06:34:10;49.47;;;13.13;;
9188;SDS011;34313;50.780;6.084;2024-01-25T06:36:35;47.10;;;13.00;;
9188;SDS011;34313;50.780;6.084;2024-01-25T06:39:01;54.13;;;13.30;;
9188;SDS011;34313;50.780;6.084;2024-01-25T06:41:26;56.93;;;13.33;;
9188;SDS011;34313;50.780;6.084;2024-01-25T06:43:52;55.33;;;14.93;;
9188;SDS011;34313;50.780;6.084;2024-01-25T06:46:17;59.43;;;14.27;;
9188;SDS011;34313;50.780;6.084;2024-01-25T06:48:43;51.83;;;12.90;;
9188;SDS011;34313;50.780;6.084;2024-01-25T06:51:08;72.60;;;15.20;;
9188;SDS011;34313;50.780;6.084;2024-01-25T06:53:33;58.10;;;15.23;;
9188;SDS011;34313;50.780;6.084;2024-01-25T06:55:59;56.70;;;13.13;;
9188;SDS011;34313;50.780;6.084;2024-01-25T06:58:24;52.00;;;13.63;;
9188;SDS011;34313;50.780;6.084;2024-01-25T07:00:50;57.87;;;14.50;;
9188;SDS011;34313;50.780;6.084;2024-01-25T07:03:15;44.53;;;13.00;;
9188;SDS011;34313;50.780;6.084;2024-01-25T07:05:40;53.60;;;14.03;;
9188;SDS011;34313;50.780;6.084;2024-01-25T07:08:06;65.47;;;14.90;;
9188;SDS011;34313;50.780;6.084;2024-01-25T07:10:34;60.47;;;13.63;;
9188;SDS011;34313;50.780;6.084;2024-01-25T07:12:59;58.90;;;15.00;;
9188;SDS011;34313;50.780;6.084;2024-01-25T07:15:25;57.10;;;15.13;;
9188;SDS011;34313;50.780;6.084;2024-01-25T07:17:50;63.77;;;16.03;;
9188;SDS011;34313;50.780;6.084;2024-01-25T07:20:16;60.00;;;15.00;;
9188;SDS011;34313;50.780;6.084;2024-01-25T07:22:42;57.17;;;15.50;;
9188;SDS011;34313;50.780;6.084;2024-01-25T07:25:08;54.97;;;14.93;;
9188;SDS011;34313;50.780;6.084;2024-01-25T07:27:33;63.97;;;16.40;;
9188;SDS011;34313;50.780;6.084;2024-01-25T07:29:59;65.73;;;16.27;;
9188;SDS011;34313;50.780;6.084;2024-01-25T07:32:24;63.23;;;16.30;;
9188;SDS011;34313;50.780;6.084;2024-01-25T07:34:50;58.53;;;16.70;;
9188;SDS011;34313;50.780;6.084;2024-01-25T07:37:15;53.07;;;16.27;;
9188;SDS011;34313;50.780;6.084;2024-01-25T07:39:43;72.40;;;17.87;;
9188;SDS011;34313;50.780;6.084;2024-01-25T07:42:08;55.10;;;16.40;;
9188;SDS011;34313;50.780;6.084;2024-01-25T07:44:34;70.27;;;18.00;;
9188;SDS011;34313;50.780;6.084;2024-01-25T07:46:59;78.03;;;18.90;;
9188;SDS011;34313;50.780;6.084;2024-01-25T07:49:24;69.93;;;18.73;;
9188;SDS011;34313;50.780;6.084;2024-01-25T07:51:50;59.20;;;18.63;;
9188;SDS011;34313;50.780;6.084;2024-01-25T07:54:15;66.07;;;17.17;;
9188;SDS011;34313;50.780;6.084;2024-01-25T07:56:41;63.33;;;18.10;;
9188;SDS011;34313;50.780;6.084;2024-01-25T07:59:06;78.50;;;18.87;;
9188;SDS011;34313;50.780;6.084;2024-01-25T08:01:32;62.47;;;18.73;;
9188;SDS011;34313;50.780;6.084;2024-01-25T08:03:58;59.20;;;19.07;;
9188;SDS011;34313;50.780;6.084;2024-01-25T08:06:25;63.43;;;18.30;;
9188;SDS011;34313;50.780;6.084;2024-01-25T08:08:51;54.60;;;19.00;;
9188;SDS011;34313;50.780;6.084;2024-01-25T08:11:16;73.50;;;19.23;;
9188;SDS011;34313;50.780;6.084;2024-01-25T08:13:44;60.07;;;19.17;;
9188;SDS011;34313;50.780;6.084;2024-01-25T08:16:10;65.57;;;19.30;;
9188;SDS011;34313;50.780;6.084;2024-01-25T08:18:38;61.50;;;18.83;;
9188;SDS011;34313;50.780;6.084;2024-01-25T08:21:10;72.43;;;18.80;;
9188;SDS011;34313;50.780;6.084;2024-01-25T08:23:36;58.70;;;15.90;;
9188;SDS011;34313;50.780;6.084;2024-01-25T08:26:01;54.37;;;15.40;;
9188;SDS011;34313;50.780;6.084;2024-01-25T08:28:26;46.43;;;14.10;;
9188;SDS011;34313;50.780;6.084;2024-01-25T08:30:52;49.77;;;16.10;;
9188;SDS011;34313;50.780;6.084;2024-01-25T08:33:18;48.73;;;13.93;;
9188;SDS011;34313;50.780;6.084;2024-01-25T08:35:43;54.00;;;13.93;;
9188;SDS011;34313;50.780;6.084;2024-01-25T08:38:08;48.03;;;14.30;;
9188;SDS011;34313;50.780;6.084;2024-01-25T08:40:34;60.97;;;14.20;;
9188;SDS011;34313;50.780;6.084;2024-01-25T08:42:59;51.17;;;14.90;;
9188;SDS011;34313;50.780;6.084;2024-01-25T08:45:24;50.83;;;12.77;;
9188;SDS011;34313;50.780;6.084;2024-01-25T08:47:50;36.07;;;12.53;;
9188;SDS011;34313;50.780;6.084;2024-01-25T08:50:16;38.83;;;12.37;;
9188;SDS011;34313;50.780;6.084;2024-01-25T08:52:41;38.97;;;11.83;;
9188;SDS011;34313;50.780;6.084;2024-01-25T08:55:07;47.37;;;13.07;;
9188;SDS011;34313;50.780;6.084;2024-01-25T08:57:34;48.90;;;12.00;;
9188;SDS011;34313;50.780;6.084;2024-01-25T09:00:00;41.43;;;12.70;;
9188;SDS011;34313;50.780;6.084;2024-01-25T09:02:26;45.33;;;12.23;;
9188;SDS011;34313;50.780;6.084;2024-01-25T09:04:54;43.07;;;11.73;;
9188;SDS011;34313;50.780;6.084;2024-01-25T09:07:20;36.33;;;12.47;;
9188;SDS011;34313;50.780;6.084;2024-01-25T09:09:47;36.13;;;10.77;;
9188;SDS011;34313;50.780;6.084;2024-01-25T09:12:12;37.13;;;11.20;;
9188;SDS011;34313;50.780;6.084;2024-01-25T09:14:39;56.27;;;13.30;;
9188;SDS011;34313;50.780;6.084;2024-01-25T09:17:04;33.60;;;10.30;;
9188;SDS011;34313;50.780;6.084;2024-01-25T09:19:30;45.60;;;10.60;;
9188;SDS011;34313;50.780;6.084;2024-01-25T09:21:56;34.60;;;11.17;;
9188;SDS011;34313;50.780;6.084;2024-01-25T09:24:23;30.93;;;10.20;;
9188;SDS011;34313;50.780;6.084;2024-01-25T09:26:48;39.57;;;10.70;;
9188;SDS011;34313;50.780;6.084;2024-01-25T09:29:14;44.10;;;10.87;;
9188;SDS011;34313;50.780;6.084;2024-01-25T09:31:39;42.53;;;11.37;;
9188;SDS011;34313;50.780;6.084;2024-01-25T09:34:04;35.20;;;10.40;;
9188;SDS011;34313;50.780;6.084;2024-01-25T09:36:29;42.00;;;10.87;;
9188;SDS011;34313;50.780;6.084;2024-01-25T09:38:55;39.43;;;9.57;;
9188;SDS011;34313;50.780;6.084;2024-01-25T09:41:20;41.63;;;9.60;;
9188;SDS011;34313;50.780;6.084;2024-01-25T09:43:46;37.77;;;9.00;;
9188;SDS011;34313;50.780;6.084;2024-01-25T09:46:12;55.30;;;10.30;;
9188;SDS011;34313;50.780;6.084;2024-01-25T09:48:38;35.23;;;8.60;;
9188;SDS011;34313;50.780;6.084;2024-01-25T09:51:05;35.40;;;10.37;;
9188;SDS011;34313;50.780;6.084;2024-01-25T09:53:31;36.30;;;9.10;;
9188;SDS011;34313;50.780;6.084;2024-01-25T09:56:08;38.43;;;8.90;;
9188;SDS011;34313;50.780;6.084;2024-01-25T10:01:07;29.63;;;8.10;;
9188;SDS011;34313;50.780;6.084;2024-01-25T10:03:34;29.37;;;8.00;;
9188;SDS011;34313;50.780;6.084;2024-01-25T10:06:00;41.13;;;7.83;;
9188;SDS011;34313;50.780;6.084;2024-01-25T10:08:25;34.83;;;8.10;;
9188;SDS011;34313;50.780;6.084;2024-01-25T10:10:51;40.83;;;8.07;;
9188;SDS011;34313;50.780;6.084;2024-01-25T10:13:18;29.00;;;7.70;;
9188;SDS011;34313;50.780;6.084;2024-01-25T10:15:44;34.30;;;7.70;;
9188;SDS011;34313;50.780;6.084;2024-01-25T10:18:11;32.13;;;7.37;;
9188;SDS011;34313;50.780;6.084;2024-01-25T10:20:47;29.90;;;7.53;;
9188;SDS011;34313;50.780;6.084;2024-01-25T10:23:12;37.60;;;8.00;;
9188;SDS011;34313;50.780;6.084;2024-01-25T10:25:37;36.47;;;8.37;;
9188;SDS011;34313;50.780;6.084;2024-01-25T10:28:03;33.17;;;7.43;;
9188;SDS011;34313;50.780;6.084;2024-01-25T10:30:33;32.70;;;7.00;;
9188;SDS011;34313;50.780;6.084;2024-01-25T10:33:00;35.03;;;7.47;;
9188;SDS011;34313;50.780;6.084;2024-01-25T10:35:26;26.17;;;6.03;;
9188;SDS011;34313;50.780;6.084;2024-01-25T10:37:52;39.00;;;6.70;;
9188;SDS011;34313;50.780;6.084;2024-01-25T10:40:18;31.83;;;6.77;;
9188;SDS011;34313;50.780;6.084;2024-01-25T10:42:44;28.20;;;6.30;;
9188;SDS011;34313;50.780;6.084;2024-01-25T10:45:10;36.47;;;8.63;;
9188;SDS011;34313;50.780;6.084;2024-01-25T10:47:35;25.00;;;6.00;;
9188;SDS011;34313;50.780;6.084;2024-01-25T10:50:02;39.23;;;7.03;;
9188;SDS011;34313;50.780;6.084;2024-01-25T10:52:29;31.30;;;6.20;;
9188;SDS011;34313;50.780;6.084;2024-01-25T10:54:57;31.10;;;7.13;;
9188;SDS011;34313;50.780;6.084;2024-01-25T10:57:23;28.30;;;6.93;;
9188;SDS011;34313;50.780;6.084;2024-01-25T10:59:48;19.23;;;6.33;;
9188;SDS011;34313;50.780;6.084;2024-01-25T11:02:14;29.63;;;6.40;;
9188;SDS011;34313;50.780;6.084;2024-01-25T11:04:39;23.90;;;6.40;;
9188;SDS011;34313;50.780;6.084;2024-01-25T11:07:08;17.30;;;5.30;;
9188;SDS011;34313;50.780;6.084;2024-01-25T11:09:34;29.80;;;6.40;;
9188;SDS011;34313;50.780;6.084;2024-01-25T11:12:12;22.90;;;6.93;;
9188;SDS011;34313;50.780;6.084;2024-01-25T11:14:39;35.23;;;7.17;;
9188;SDS011;34313;50.780;6.084;2024-01-25T11:17:23;28.10;;;6.03;;
9188;SDS011;34313;50.780;6.084;2024-01-25T11:19:49;25.17;;;6.40;;
9188;SDS011;34313;50.780;6.084;2024-01-25T11:22:18;29.90;;;5.57;;
9188;SDS011;34313;50.780;6.084;2024-01-25T11:24:43;23.30;;;5.90;;
9188;SDS011;34313;50.780;6.084;2024-01-25T11:27:10;24.27;;;5.80;;
9188;SDS011;34313;50.780;6.084;2024-01-25T11:29:36;28.00;;;5.30;;
9188;SDS011;34313;50.780;6.084;2024-01-25T11:32:03;38.23;;;6.40;;
9188;SDS011;34313;50.780;6.084;2024-01-25T11:34:30;20.50;;;4.70;;
9188;SDS011;34313;50.780;6.084;2024-01-25T11:36:56;28.57;;;5.80;;
9188;SDS011;34313;50.780;6.084;2024-01-25T11:39:22;30.73;;;6.20;;
9188;SDS011;34313;50.780;6.084;2024-01-25T11:41:50;28.70;;;6.03;;
9188;SDS011;34313;50.780;6.084;2024-01-25T11:44:16;22.30;;;5.40;;
9188;SDS011;34313;50.780;6.084;2024-01-25T11:46:42;23.87;;;5.47;;
9188;SDS011;34313;50.780;6.084;2024-01-25T11:49:07;31.63;;;6.87;;
9188;SDS011;34313;50.780;6.084;2024-01-25T11:51:33;24.53;;;6.13;;
9188;SDS011;34313;50.780;6.084;2024-01-25T11:53:58;25.50;;;5.83;;
9188;SDS011;34313;50.780;6.084;2024-01-25T11:56:26;22.53;;;5.50;;
9188;SDS011;34313;50.780;6.084;2024-01-25T11:58:55;23.43;;;5.70;;
9188;SDS011;34313;50.780;6.084;2024-01-25T12:01:22;25.00;;;5.93;;
9188;SDS011;34313;50.780;6.084;2024-01-25T12:03:48;26.13;;;5.60;;
9188;SDS011;34313;50.780;6.084;2024-01-25T12:06:13;23.57;;;5.57;;
9188;SDS011;34313;50.780;6.084;2024-01-25T12:08:39;37.77;;;5.67;;
9188;SDS011;34313;50.780;6.084;2024-01-25T12:13:34;30.53;;;5.50;;
9188;SDS011;34313;50.780;6.084;2024-01-25T12:16:06;25.23;;;5.67;;
9188;SDS011;34313;50.780;6.084;2024-01-25T12:18:32;25.57;;;5.57;;
9188;SDS011;34313;50.780;6.084;2024-01-25T12:20:58;26.73;;;4.60;;
9188;SDS011;34313;50.780;6.084;2024-01-25T12:26:04;29.10;;;5.80;;
9188;SDS011;34313;50.780;6.084;2024-01-25T12:28:31;19.37;;;5.17;;
9188;SDS011;34313;50.780;6.084;2024-01-25T12:30:57;14.83;;;4.50;;
9188;SDS011;34313;50.780;6.084;2024-01-25T12:33:24;20.27;;;4.87;;
9188;SDS011;34313;50.780;6.084;2024-01-25T12:35:50;23.40;;;4.93;;
9188;SDS011;34313;50.780;6.084;2024-01-25T12:38:15;15.67;;;4.23;;
9188;SDS011;34313;50.780;6.084;2024-01-25T12:40:44;22.43;;;4.53;;
9188;SDS011;34313;50.780;6.084;2024-01-25T12:43:11;27.03;;;4.53;;
9188;SDS011;34313;50.780;6.084;2024-01-25T12:45:37;28.17;;;5.33;;
9188;SDS011;34313;50.780;6.084;2024-01-25T12:48:02;17.90;;;4.90;;
9188;SDS011;34313;50.780;6.084;2024-01-25T12:50:28;22.33;;;4.03;;
9188;SDS011;34313;50.780;6.084;2024-01-25T12:52:53;15.50;;;4.30;;
9188;SDS011;34313;50.780;6.084;2024-01-25T12:55:18;31.63;;;7.07;;
9188;SDS011;34313;50.780;6.084;2024-01-25T12:57:44;18.40;;;5.43;;
9188;SDS011;34313;50.780;6.084;2024-01-25T13:00:09;28.73;;;5.23;;
9188;SDS011;34313;50.780;6.084;2024-01-25T13:02:35;16.93;;;4.67;;
9188;SDS011;34313;50.780;6.084;2024-01-25T13:05:00;18.27;;;4.43;;
9188;SDS011;34313;50.780;6.084;2024-01-25T13:07:25;28.83;;;4.83;;
9188;SDS011;34313;50.780;6.084;2024-01-25T13:09:51;25.43;;;4.90;;
9188;SDS011;34313;50.780;6.084;2024-01-25T13:12:16;19.67;;;4.70;;
9188;SDS011;34313;50.780;6.084;2024-01-25T13:14:41;20.17;;;4.43;;
9188;SDS011;34313;50.780;6.084;2024-01-25T13:17:06;24.67;;;4.83;;
9188;SDS011;34313;50.780;6.084;2024-01-25T13:19:33;22.03;;;4.13;;
9188;SDS011;34313;50.780;6.084;2024-01-25T13:21:58;21.53;;;5.03;;
9188;SDS011;34313;50.780;6.084;2024-01-25T13:24:24;26.90;;;4.90;;
9188;SDS011;34313;50.780;6.084;2024-01-25T13:26:49;15.30;;;4.43;;
9188;SDS011;34313;50.780;6.084;2024-01-25T13:29:14;21.27;;;4.53;;
9188;SDS011;34313;50.780;6.084;2024-01-25T13:31:40;17.93;;;4.23;;
9188;SDS011;34313;50.780;6.084;2024-01-25T13:34:06;20.13;;;4.20;;
9188;SDS011;34313;50.780;6.084;2024-01-25T13:36:31;15.57;;;4.50;;
9188;SDS011;34313;50.780;6.084;2024-01-25T13:38:57;27.53;;;5.30;;
9188;SDS011;34313;50.780;6.084;2024-01-25T13:41:22;26.43;;;4.30;;
9188;SDS011;34313;50.780;6.084;2024-01-25T13:43:47;22.60;;;3.93;;
9188;SDS011;34313;50.780;6.084;2024-01-25T13:46:13;14.90;;;3.90;;
9188;SDS011;34313;50.780;6.084;2024-01-25T13:48:38;18.83;;;3.70;;
9188;SDS011;34313;50.780;6.084;2024-01-25T13:51:03;18.93;;;4.30;;
9188;SDS011;34313;50.780;6.084;2024-01-25T13:53:29;20.70;;;4.07;;
9188;SDS011;34313;50.780;6.084;2024-01-25T13:55:54;15.50;;;3.80;;
9188;SDS011;34313;50.780;6.084;2024-01-25T13:58:19;22.43;;;4.57;;
9188;SDS011;34313;50.780;6.084;2024-01-25T14:00:44;17.57;;;3.63;;
9188;SDS011;34313;50.780;6.084;2024-01-25T14:03:10;22.93;;;3.33;;
9188;SDS011;34313;50.780;6.084;2024-01-25T14:05:35;16.43;;;3.60;;
9188;SDS011;34313;50.780;6.084;2024-01-25T14:08:00;14.53;;;3.43;;
9188;SDS011;34313;50.780;6.084;2024-01-25T14:10:26;23.77;;;4.03;;
9188;SDS011;34313;50.780;6.084;2024-01-25T14:12:52;19.27;;;3.13;;
9188;SDS011;34313;50.780;6.084;2024-01-25T14:15:18;22.17;;;3.60;;
9188;SDS011;34313;50.780;6.084;2024-01-25T14:17:43;16.07;;;3.30;;
9188;SDS011;34313;50.780;6.084;2024-01-25T14:20:09;19.13;;;3.80;;
9188;SDS011;34313;50.780;6.084;2024-01-25T14:22:34;21.83;;;3.50;;
9188;SDS011;34313;50.780;6.084;2024-01-25T14:25:00;15.63;;;2.93;;
9188;SDS011;34313;50.780;6.084;2024-01-25T14:27:25;13.17;;;3.90;;
9188;SDS011;34313;50.780;6.084;2024-01-25T14:29:51;18.30;;;3.80;;
9188;SDS011;34313;50.780;6.084;2024-01-25T14:32:17;20.10;;;4.63;;
9188;SDS011;34313;50.780;6.084;2024-01-25T14:34:44;18.63;;;3.70;;
9188;SDS011;34313;50.780;6.084;2024-01-25T14:37:10;21.00;;;4.47;;
9188;SDS011;34313;50.780;6.084;2024-01-25T14:39:38;23.83;;;4.37;;
9188;SDS011;34313;50.780;6.084;2024-01-25T14:42:03;13.90;;;2.80;;